West Newark, New York
Current Conditions -  °F | °C
As of 4:53 PM on Friday 31 Oct 2014 (Local Time) from KBGM Reporting Station
Overcast Overcast  
Wind Chill: 43°   Ceiling: 11000
Heat Index: 46°   Visibility: 10mi
Dew Point: 31°   Wind: 6mph
Humidity: 56%   Direction: 20°NNE
Pressure: 29.88"   Gusts: NA
Location:  42.2341°N, 76.1713°W
Report Text: KBGM 312053Z 02005KT 10SM FEW047 OVC110 08/M01 A2988 RMK AO2 SLP130 T00781006 56009
Loading
Personal Weather Stations






























Interactive Weather Map
Tropical Storm Tracking
New forecast layout! Learn more

10-Day Weather Forecast

Advertisements
Track Severe Weather on mobile